createdAt,value
2017-07-18T00:00:31.444Z,0
2017-07-18T00:01:12.019Z,0
2017-07-18T00:01:52.461Z,0
2017-07-18T00:02:32.934Z,0
2017-07-18T00:03:13.512Z,0
2017-07-18T00:03:53.998Z,0
2017-07-18T00:04:34.526Z,0
2017-07-18T00:05:15.014Z,0
2017-07-18T00:05:55.509Z,0
2017-07-18T00:06:36.007Z,0
2017-07-18T00:07:16.492Z,0
2017-07-18T00:07:57.136Z,0
2017-07-18T00:08:37.567Z,0
2017-07-18T00:09:18.077Z,0
2017-07-18T00:09:58.604Z,0
2017-07-18T00:10:39.170Z,0
2017-07-18T00:11:19.919Z,0
2017-07-18T00:12:00.408Z,0
2017-07-18T00:12:40.913Z,0
2017-07-18T00:13:21.392Z,0
2017-07-18T00:14:02.899Z,0
2017-07-18T00:14:43.340Z,0
2017-07-18T00:15:23.912Z,0
2017-07-18T00:16:04.429Z,0
2017-07-18T00:16:44.960Z,0
2017-07-18T00:17:25.396Z,0
2017-07-18T00:18:05.899Z,0
2017-07-18T00:18:46.354Z,0
2017-07-18T00:19:26.875Z,0
2017-07-18T00:20:07.387Z,0
2017-07-18T00:20:47.865Z,0
2017-07-18T00:21:28.323Z,0
2017-07-18T00:22:08.842Z,0
2017-07-18T00:22:49.325Z,0
2017-07-18T00:23:29.978Z,0
2017-07-18T00:24:10.332Z,0
2017-07-18T00:24:50.870Z,0
2017-07-18T00:25:31.407Z,0
2017-07-18T00:26:11.944Z,0
2017-07-18T00:26:52.391Z,0
2017-07-18T00:27:32.895Z,0
2017-07-18T00:28:13.437Z,0
2017-07-18T00:28:53.933Z,0
2017-07-18T00:29:34.439Z,0
2017-07-18T00:30:14.924Z,0
2017-07-18T00:30:55.411Z,0
2017-07-18T00:31:35.912Z,0
2017-07-18T00:32:16.422Z,0
2017-07-18T00:32:56.896Z,0
2017-07-18T00:33:37.550Z,0
2017-07-18T00:34:17.928Z,0
2017-07-18T00:34:58.415Z,0
2017-07-18T00:35:38.882Z,0
2017-07-18T00:36:19.399Z,0
2017-07-18T00:36:59.873Z,0
2017-07-18T00:37:40.390Z,0
2017-07-18T00:38:20.899Z,0
2017-07-18T00:39:01.363Z,0
2017-07-18T00:39:41.832Z,0
2017-07-18T00:40:22.380Z,0
2017-07-18T00:41:02.876Z,0
2017-07-18T00:41:43.368Z,0
2017-07-18T00:42:23.896Z,0
2017-07-18T00:43:04.378Z,0
2017-07-18T00:43:44.878Z,0
2017-07-18T00:44:25.360Z,0
2017-07-18T00:45:05.971Z,0
2017-07-18T00:45:46.468Z,0
2017-07-18T00:46:26.975Z,0
2017-07-18T00:47:07.426Z,0
2017-07-18T00:47:47.924Z,0
2017-07-18T00:48:28.429Z,0
2017-07-18T00:49:08.902Z,0
2017-07-18T00:49:49.357Z,0
2017-07-18T00:50:29.876Z,0
2017-07-18T00:51:10.361Z,0
2017-07-18T00:51:50.875Z,0
2017-07-18T00:52:31.439Z,0
2017-07-18T00:53:11.973Z,0
2017-07-18T00:53:52.474Z,0
2017-07-18T00:54:32.989Z,0
2017-07-18T00:55:13.464Z,0
2017-07-18T00:55:53.973Z,0
2017-07-18T00:56:34.481Z,0
2017-07-18T00:57:15.028Z,0
2017-07-18T00:57:55.485Z,0
2017-07-18T00:58:35.988Z,0
2017-07-18T00:59:16.509Z,0
2017-07-18T00:59:57.003Z,0
2017-07-18T01:00:37.489Z,0
2017-07-18T01:01:17.984Z,0
2017-07-18T01:01:58.404Z,0
2017-07-18T01:02:38.939Z,0
2017-07-18T01:03:19.443Z,0
2017-07-18T01:03:59.932Z,0
2017-07-18T01:04:40.371Z,0
2017-07-18T01:05:20.902Z,0
2017-07-18T01:06:01.373Z,0
2017-07-18T01:06:42.016Z,0
2017-07-18T01:07:22.476Z,0
2017-07-18T01:08:03.014Z,0
2017-07-18T01:08:43.525Z,0
2017-07-18T01:09:23.951Z,0
2017-07-18T01:10:04.484Z,0
2017-07-18T01:10:44.978Z,0
2017-07-18T01:11:25.454Z,0
2017-07-18T01:12:06.002Z,0
2017-07-18T01:12:46.510Z,0
2017-07-18T01:13:27.051Z,0
2017-07-18T01:14:07.523Z,0
2017-07-18T01:14:47.957Z,0
2017-07-18T01:15:28.466Z,0
2017-07-18T01:16:09.006Z,0
2017-07-18T01:16:49.463Z,0
2017-07-18T01:17:30.003Z,0
2017-07-18T01:18:10.657Z,0
2017-07-18T01:18:51.129Z,0
2017-07-18T01:19:31.683Z,0
2017-07-18T01:20:12.125Z,0
2017-07-18T01:20:52.805Z,0
2017-07-18T01:21:33.341Z,0
2017-07-18T01:22:13.811Z,0
2017-07-18T01:22:54.326Z,0
2017-07-18T01:23:34.821Z,0
2017-07-18T01:24:15.261Z,0
2017-07-18T01:24:55.762Z,0
2017-07-18T01:25:36.246Z,0
2017-07-18T01:26:16.785Z,0
2017-07-18T01:26:57.262Z,0
2017-07-18T01:27:37.806Z,0
2017-07-18T01:28:18.329Z,0
2017-07-18T01:28:58.785Z,0
2017-07-18T01:29:39.271Z,0
2017-07-18T01:30:19.749Z,0
2017-07-18T01:31:00.234Z,0
2017-07-18T01:31:40.736Z,0
2017-07-18T01:32:21.252Z,0
2017-07-18T01:33:01.704Z,0
2017-07-18T01:33:42.233Z,0
2017-07-18T01:34:22.708Z,0
2017-07-18T01:35:03.401Z,0
2017-07-18T01:35:44.061Z,0
2017-07-18T01:36:24.578Z,0
2017-07-18T01:37:05.109Z,0
2017-07-18T01:37:45.559Z,0
2017-07-18T01:38:26.096Z,0
2017-07-18T01:39:06.622Z,0
2017-07-18T01:39:47.083Z,0
2017-07-18T01:40:27.603Z,0
2017-07-18T01:41:08.109Z,0
2017-07-18T01:41:48.568Z,0
2017-07-18T01:42:29.142Z,0
2017-07-18T01:43:09.646Z,0
2017-07-18T01:43:50.082Z,0
2017-07-18T01:44:30.566Z,0
2017-07-18T01:45:11.060Z,0
2017-07-18T01:45:51.600Z,0
2017-07-18T01:46:32.037Z,0
2017-07-18T01:47:12.545Z,0
2017-07-18T01:47:53.146Z,0
2017-07-18T01:48:33.533Z,0
2017-07-18T01:49:14.041Z,0
2017-07-18T01:49:54.580Z,0
2017-07-18T01:50:35.056Z,0
2017-07-18T01:51:15.532Z,0
2017-07-18T01:51:56.008Z,0
2017-07-18T01:52:36.506Z,0
2017-07-18T01:53:17.068Z,0
2017-07-18T01:53:57.527Z,0
2017-07-18T01:54:37.971Z,0
2017-07-18T01:55:18.482Z,0
2017-07-18T01:55:58.948Z,0
2017-07-18T01:56:39.532Z,0
2017-07-18T01:57:20.054Z,0
2017-07-18T01:58:00.565Z,0
2017-07-18T01:58:41.051Z,0
2017-07-18T01:59:21.513Z,0
2017-07-18T02:00:01.980Z,0
2017-07-18T02:00:42.620Z,0
2017-07-18T02:01:23.129Z,0
2017-07-18T02:02:03.582Z,0
2017-07-18T02:02:44.243Z,0
2017-07-18T02:03:24.803Z,0
2017-07-18T02:04:05.289Z,0
2017-07-18T02:04:45.826Z,0
2017-07-18T02:05:26.329Z,0
2017-07-18T02:06:06.808Z,0
2017-07-18T02:06:47.344Z,0
2017-07-18T02:07:27.814Z,0
2017-07-18T02:08:08.328Z,0
2017-07-18T02:08:48.807Z,0
2017-07-18T02:09:29.353Z,0
2017-07-18T02:10:09.888Z,0
2017-07-18T02:10:50.292Z,0
2017-07-18T02:11:30.791Z,0
2017-07-18T02:12:11.261Z,0
2017-07-18T02:12:51.822Z,0
2017-07-18T02:13:32.338Z,0
2017-07-18T02:14:12.783Z,0
2017-07-18T02:14:53.273Z,0
2017-07-18T02:15:33.822Z,0
2017-07-18T02:16:14.299Z,0
2017-07-18T02:16:54.795Z,0
2017-07-18T02:17:35.452Z,0
2017-07-18T02:18:15.994Z,0
2017-07-18T02:18:56.490Z,0
2017-07-18T02:19:36.946Z,0
2017-07-18T02:20:17.445Z,0
2017-07-18T02:20:57.933Z,0
2017-07-18T02:21:38.582Z,0
2017-07-18T02:22:19.064Z,0
2017-07-18T02:22:59.580Z,0
2017-07-18T02:23:40.114Z,0
2017-07-18T02:24:20.573Z,0
2017-07-18T02:25:01.173Z,0
2017-07-18T02:25:41.562Z,0
2017-07-18T02:26:22.072Z,0
2017-07-18T02:27:02.573Z,0
2017-07-18T02:27:43.052Z,0
2017-07-18T02:28:23.542Z,0
2017-07-18T02:29:04.034Z,0
2017-07-18T02:29:44.677Z,0
2017-07-18T02:30:25.181Z,0
2017-07-18T02:31:05.781Z,0
2017-07-18T02:31:46.246Z,0
2017-07-18T02:32:26.728Z,0
2017-07-18T02:33:07.218Z,0
2017-07-18T02:33:47.745Z,0
2017-07-18T02:34:28.207Z,0
2017-07-18T02:35:08.734Z,0
2017-07-18T02:35:49.170Z,0
2017-07-18T02:36:29.664Z,0
2017-07-18T02:37:10.227Z,0
2017-07-18T02:37:50.688Z,0
2017-07-18T02:38:31.182Z,0
2017-07-18T02:39:11.692Z,0
2017-07-18T02:39:52.201Z,0
2017-07-18T02:40:32.727Z,0
2017-07-18T02:41:13.227Z,0
2017-07-18T02:41:53.735Z,0
2017-07-18T02:42:34.245Z,0
2017-07-18T02:43:14.829Z,0
2017-07-18T02:43:55.239Z,0
2017-07-18T02:44:35.784Z,0
2017-07-18T02:45:16.355Z,0
2017-07-18T02:45:56.934Z,0
2017-07-18T02:46:37.418Z,0
2017-07-18T02:47:17.928Z,0
2017-07-18T02:47:58.432Z,0
2017-07-18T02:48:38.918Z,0
2017-07-18T02:49:19.387Z,0
2017-07-18T02:49:59.918Z,0
2017-07-18T02:50:40.464Z,0
2017-07-18T02:51:20.984Z,0
2017-07-18T02:52:01.466Z,0
2017-07-18T02:52:42.022Z,0
2017-07-18T02:53:22.483Z,0
2017-07-18T02:54:02.937Z,0
2017-07-18T02:54:43.493Z,0
2017-07-18T02:55:24.020Z,0
2017-07-18T02:56:04.498Z,0
2017-07-18T02:56:44.961Z,0
2017-07-18T02:57:25.487Z,0
2017-07-18T02:58:05.951Z,0
2017-07-18T02:58:46.472Z,0
2017-07-18T02:59:27.117Z,0
2017-07-18T03:00:07.515Z,0
2017-07-18T03:00:48.056Z,0
2017-07-18T03:01:28.502Z,0
2017-07-18T03:02:09.030Z,0
2017-07-18T03:02:49.479Z,0
2017-07-18T03:03:30.033Z,0
2017-07-18T03:04:10.475Z,0
2017-07-18T03:04:50.967Z,0
2017-07-18T03:05:31.462Z,0
2017-07-18T03:06:11.933Z,0
2017-07-18T03:06:52.489Z,0
2017-07-18T03:07:32.961Z,0
2017-07-18T03:08:13.472Z,0
2017-07-18T03:08:53.987Z,0
2017-07-18T03:09:34.473Z,0
2017-07-18T03:10:15.007Z,0
2017-07-18T03:10:55.570Z,0
2017-07-18T03:11:36.061Z,0
2017-07-18T03:12:16.495Z,0
2017-07-18T03:12:56.981Z,0
2017-07-18T03:13:37.494Z,0
2017-07-18T03:14:17.965Z,0
2017-07-18T03:14:58.546Z,0
2017-07-18T03:15:38.958Z,0
2017-07-18T03:16:19.499Z,0
2017-07-18T03:16:59.958Z,0
2017-07-18T03:17:40.457Z,0
2017-07-18T03:18:20.965Z,0
2017-07-18T03:19:01.418Z,0
2017-07-18T03:19:41.923Z,0
2017-07-18T03:20:22.394Z,0
2017-07-18T03:21:02.860Z,0
2017-07-18T03:21:43.418Z,0
2017-07-18T03:22:23.866Z,0
2017-07-18T03:23:04.355Z,0
2017-07-18T03:23:44.910Z,0
2017-07-18T03:24:25.360Z,0
2017-07-18T03:25:05.841Z,0
2017-07-18T03:25:46.371Z,0
2017-07-18T03:26:26.885Z,0
2017-07-18T03:27:07.316Z,0
2017-07-18T03:27:47.812Z,0
2017-07-18T03:28:28.468Z,0
2017-07-18T03:29:08.896Z,0
2017-07-18T03:29:49.451Z,0
2017-07-18T03:30:29.934Z,0
2017-07-18T03:31:10.385Z,0
2017-07-18T03:31:50.950Z,0
2017-07-18T03:32:31.419Z,0
2017-07-18T03:33:12.068Z,0
2017-07-18T03:33:52.480Z,0
2017-07-18T03:34:32.977Z,0
2017-07-18T03:35:13.518Z,0
2017-07-18T03:35:54.050Z,0
2017-07-18T03:36:34.497Z,0
2017-07-18T03:37:15.039Z,0
2017-07-18T03:37:55.680Z,0
2017-07-18T03:38:36.267Z,0
2017-07-18T03:39:16.702Z,0
2017-07-18T03:39:57.151Z,0
2017-07-18T03:40:37.651Z,0
2017-07-18T03:41:18.181Z,0
2017-07-18T03:41:58.641Z,0
2017-07-18T03:42:39.359Z,0
2017-07-18T03:43:19.861Z,0
2017-07-18T03:44:00.310Z,0
2017-07-18T03:44:40.807Z,0
2017-07-18T03:45:21.290Z,0
2017-07-18T03:46:01.812Z,0
2017-07-18T03:46:42.310Z,0
2017-07-18T03:47:22.774Z,0
2017-07-18T03:48:03.307Z,0
2017-07-18T03:48:43.771Z,0
2017-07-18T03:49:24.324Z,0
2017-07-18T03:50:04.838Z,0
2017-07-18T03:50:45.329Z,0
2017-07-18T03:51:25.837Z,0
2017-07-18T03:52:06.332Z,0
2017-07-18T03:52:46.779Z,0
2017-07-18T03:53:27.311Z,0
2017-07-18T03:54:07.783Z,0
2017-07-18T03:54:48.313Z,0
2017-07-18T03:55:28.749Z,0
2017-07-18T03:56:09.309Z,0
2017-07-18T03:56:49.934Z,0
2017-07-18T03:57:30.381Z,0
2017-07-18T03:58:10.867Z,0
2017-07-18T03:58:51.374Z,0
2017-07-18T03:59:31.880Z,0
2017-07-18T04:00:12.328Z,0
2017-07-18T04:00:52.834Z,0
2017-07-18T04:01:33.308Z,0
2017-07-18T04:02:13.822Z,0
2017-07-18T04:02:54.296Z,0
2017-07-18T04:03:34.891Z,0
2017-07-18T04:04:15.428Z,0
2017-07-18T04:04:55.934Z,0
2017-07-18T04:05:36.415Z,0
2017-07-18T04:06:16.924Z,0
2017-07-18T04:06:57.406Z,0
2017-07-18T04:07:37.896Z,0
2017-07-18T04:08:18.435Z,0
2017-07-18T04:08:58.953Z,0
2017-07-18T04:09:39.429Z,0
2017-07-18T04:10:19.972Z,0
2017-07-18T04:11:00.532Z,0
2017-07-18T04:11:41.064Z,0
2017-07-18T04:12:21.519Z,0
2017-07-18T04:13:02.045Z,0
2017-07-18T04:13:42.576Z,0
2017-07-18T04:14:23.017Z,0
2017-07-18T04:15:03.529Z,0
2017-07-18T04:15:43.991Z,0
2017-07-18T04:16:24.546Z,0
2017-07-18T04:17:05.036Z,0
2017-07-18T04:17:45.553Z,0
2017-07-18T04:18:26.051Z,0
2017-07-18T04:19:06.596Z,0
2017-07-18T04:19:47.074Z,0
2017-07-18T04:20:27.561Z,0
2017-07-18T04:21:08.054Z,0
2017-07-18T04:21:48.524Z,0
2017-07-18T04:22:29.027Z,0
2017-07-18T04:23:09.484Z,0
2017-07-18T04:23:49.988Z,5
2017-07-18T04:24:30.497Z,5
2017-07-18T04:25:10.963Z,5
2017-07-18T04:25:51.415Z,5
2017-07-18T04:26:31.938Z,5
2017-07-18T04:27:12.467Z,5
2017-07-18T04:27:52.916Z,5
2017-07-18T04:28:33.457Z,5
2017-07-18T04:29:13.965Z,5
2017-07-18T04:29:54.404Z,5
2017-07-18T04:30:34.867Z,5
2017-07-18T04:31:15.354Z,5
2017-07-18T04:31:55.854Z,5
2017-07-18T04:32:36.423Z,5
2017-07-18T04:33:16.910Z,5
2017-07-18T04:33:57.369Z,5
2017-07-18T04:34:37.850Z,10
2017-07-18T04:35:18.351Z,15
2017-07-18T04:35:58.845Z,15
2017-07-18T04:36:39.355Z,10
2017-07-18T04:37:19.872Z,5
2017-07-18T04:38:00.407Z,5
2017-07-18T04:38:40.876Z,10
2017-07-18T04:39:21.484Z,10
2017-07-18T04:40:02.078Z,10
2017-07-18T04:40:42.525Z,10
2017-07-18T04:41:23.053Z,10
2017-07-18T04:42:03.561Z,15
2017-07-18T04:42:44.084Z,15
2017-07-18T04:43:24.531Z,10
2017-07-18T04:44:05.080Z,10
2017-07-18T04:44:45.496Z,10
2017-07-18T04:45:26.027Z,15
2017-07-18T04:46:06.526Z,10
2017-07-18T04:46:47.004Z,15
2017-07-18T04:47:27.513Z,15
2017-07-18T04:48:08.103Z,10
2017-07-18T04:48:48.620Z,15
2017-07-18T04:49:29.260Z,15
2017-07-18T04:50:09.719Z,10
2017-07-18T04:50:50.240Z,10
2017-07-18T04:51:30.698Z,10
2017-07-18T04:52:11.219Z,10
2017-07-18T04:52:51.710Z,10
2017-07-18T04:53:32.321Z,10
2017-07-18T04:54:12.773Z,10
2017-07-18T04:54:53.308Z,10
2017-07-18T04:55:33.867Z,10
2017-07-18T04:56:14.417Z,15
2017-07-18T04:56:54.934Z,15
2017-07-18T04:57:35.434Z,15
2017-07-18T04:58:15.904Z,15
2017-07-18T04:58:56.403Z,15
2017-07-18T04:59:36.900Z,15
2017-07-18T05:00:17.403Z,15
2017-07-18T05:00:57.982Z,20
2017-07-18T05:01:38.422Z,25
2017-07-18T05:02:18.909Z,15
2017-07-18T05:02:59.403Z,15
2017-07-18T05:03:39.926Z,10
2017-07-18T05:04:21.292Z,10
2017-07-18T05:05:00.917Z,15
2017-07-18T05:05:42.292Z,10
2017-07-18T05:06:21.915Z,10
2017-07-18T05:07:02.433Z,10
2017-07-18T05:07:42.928Z,15
2017-07-18T05:08:23.413Z,15
2017-07-18T05:09:03.902Z,10
2017-07-18T05:09:44.454Z,15
2017-07-18T05:10:25.073Z,15
2017-07-18T05:11:05.767Z,20
2017-07-18T05:11:46.354Z,20
2017-07-18T05:12:27.174Z,15
2017-07-18T05:13:07.588Z,20
2017-07-18T05:13:48.139Z,25
2017-07-18T05:14:28.840Z,40
2017-07-18T05:15:09.425Z,20
2017-07-18T05:15:49.917Z,10
2017-07-18T05:16:30.395Z,10
2017-07-18T05:17:10.892Z,30
2017-07-18T05:17:51.458Z,40
2017-07-18T05:20:22.492Z,20
2017-07-18T05:21:03.062Z,20
2017-07-18T05:21:43.565Z,20
2017-07-18T05:22:24.129Z,20
2017-07-18T05:23:04.693Z,15
2017-07-18T05:23:45.214Z,10
2017-07-18T05:24:26.097Z,15
2017-07-18T05:25:06.592Z,10
2017-07-18T05:25:47.094Z,10
2017-07-18T05:26:27.683Z,15
2017-07-18T05:27:08.185Z,20
2017-07-18T05:27:48.741Z,25
2017-07-18T05:28:29.317Z,10
2017-07-18T05:29:11.388Z,15
2017-07-18T05:29:51.841Z,15
2017-07-18T05:30:34.004Z,10
2017-07-18T05:31:14.478Z,10
2017-07-18T05:31:55.088Z,15
2017-07-18T05:32:35.550Z,10
2017-07-18T05:33:16.058Z,25
2017-07-18T05:33:56.566Z,10
2017-07-18T05:34:37.065Z,10
2017-07-18T05:35:17.620Z,10
2017-07-18T05:35:58.147Z,10
2017-07-18T05:36:38.667Z,10
2017-07-18T05:37:21.695Z,10
2017-07-18T05:38:01.556Z,10
2017-07-18T05:38:42.055Z,15
2017-07-18T05:39:24.494Z,10
2017-07-18T05:40:04.993Z,10
2017-07-18T05:40:45.557Z,10
2017-07-18T05:41:26.054Z,10
2017-07-18T05:42:06.569Z,10
2017-07-18T05:42:47.091Z,10
2017-07-18T05:43:27.594Z,10
2017-07-18T05:44:09.957Z,10
2017-07-18T05:44:52.376Z,10
2017-07-18T05:45:34.614Z,10
2017-07-18T05:46:15.089Z,10
2017-07-18T05:46:55.622Z,10
2017-07-18T05:47:36.442Z,10
2017-07-18T05:48:16.995Z,10
2017-07-18T05:48:57.444Z,10
2017-07-18T05:49:37.950Z,10
2017-07-18T05:50:18.506Z,10
2017-07-18T05:50:58.997Z,10
2017-07-18T05:51:39.473Z,10
2017-07-18T05:52:21.893Z,10
2017-07-18T05:53:02.385Z,10
2017-07-18T05:53:42.897Z,10
2017-07-18T05:54:23.423Z,10
2017-07-18T05:55:03.961Z,15
2017-07-18T05:55:46.220Z,10
2017-07-18T05:56:26.714Z,15
2017-07-18T05:57:07.230Z,15
2017-07-18T05:57:47.755Z,20
2017-07-18T05:58:31.955Z,15
2017-07-18T05:59:12.504Z,20
2017-07-18T05:59:53.023Z,25
2017-07-18T06:00:33.522Z,30
2017-07-18T06:01:14.096Z,25
2017-07-18T06:01:54.590Z,40
2017-07-18T06:02:35.100Z,40
2017-07-18T06:03:15.667Z,40
2017-07-18T06:03:56.161Z,45
2017-07-18T06:04:36.658Z,45
2017-07-18T06:05:20.992Z,45
2017-07-18T06:06:03.385Z,45
2017-07-18T06:06:43.903Z,45
2017-07-18T06:07:24.368Z,45
2017-07-18T06:08:04.937Z,45
2017-07-18T06:08:45.920Z,45
2017-07-18T06:09:26.498Z,45
2017-07-18T06:10:07.082Z,45
2017-07-18T06:10:47.572Z,45
2017-07-18T06:11:28.095Z,45
2017-07-18T06:12:10.320Z,45
2017-07-18T06:12:50.847Z,40
2017-07-18T06:13:31.345Z,40
2017-07-18T06:14:11.873Z,40
2017-07-18T06:14:52.420Z,35
2017-07-18T06:15:33.037Z,40
2017-07-18T06:16:13.545Z,40
2017-07-18T06:16:54.154Z,40
2017-07-18T06:17:34.712Z,40
2017-07-18T06:18:15.312Z,40
2017-07-18T06:18:55.835Z,40
2017-07-18T06:19:36.345Z,40
2017-07-18T06:20:16.843Z,35
2017-07-18T06:20:57.356Z,35
2017-07-18T06:21:37.884Z,35
2017-07-18T06:22:18.398Z,35
2017-07-18T06:22:58.849Z,35
2017-07-18T06:23:39.572Z,35
2017-07-18T06:24:21.728Z,35
2017-07-18T06:25:02.326Z,35
2017-07-18T06:27:36.055Z,35
2017-07-18T06:28:16.550Z,35
2017-07-18T06:28:57.055Z,35
2017-07-18T06:29:37.571Z,35
2017-07-18T06:30:18.084Z,35
2017-07-18T06:30:58.541Z,35
2017-07-18T06:31:39.032Z,35
2017-07-18T06:32:19.530Z,35
2017-07-18T06:33:00.022Z,35
2017-07-18T06:33:40.529Z,35
2017-07-18T06:34:21.035Z,35
2017-07-18T06:35:01.528Z,35
2017-07-18T06:35:42.001Z,35
2017-07-18T06:36:22.496Z,35
2017-07-18T06:37:02.974Z,35
2017-07-18T06:37:43.449Z,35
2017-07-18T06:38:23.934Z,35
2017-07-18T06:39:04.454Z,35
2017-07-18T06:39:44.925Z,35
2017-07-18T06:40:25.436Z,35
2017-07-18T06:41:05.891Z,35
2017-07-18T06:41:46.377Z,35
2017-07-18T06:42:26.887Z,35
2017-07-18T06:43:07.341Z,35
2017-07-18T06:43:47.834Z,35
2017-07-18T06:44:28.341Z,35
2017-07-18T06:45:08.834Z,35
2017-07-18T06:45:49.325Z,35
2017-07-18T06:46:29.815Z,35
2017-07-18T06:47:10.336Z,35
2017-07-18T06:47:51.197Z,35
2017-07-18T06:48:31.703Z,35
2017-07-18T06:49:13.103Z,35
2017-07-18T06:49:53.603Z,30
2017-07-18T06:50:34.137Z,30
2017-07-18T06:51:14.671Z,35
2017-07-18T06:51:55.159Z,35
2017-07-18T06:52:35.694Z,35
2017-07-18T06:53:16.249Z,35
2017-07-18T06:53:56.682Z,35
2017-07-18T06:54:37.234Z,35
2017-07-18T06:55:17.708Z,30
2017-07-18T06:55:58.421Z,35
2017-07-18T06:56:38.922Z,30
2017-07-18T06:57:19.480Z,30
2017-07-18T06:58:00.844Z,30
2017-07-18T06:58:40.549Z,30
2017-07-18T06:59:20.997Z,35
2017-07-18T07:00:01.464Z,30
2017-07-18T07:00:41.986Z,35
2017-07-18T07:01:22.559Z,30
2017-07-18T07:02:03.008Z,30
2017-07-18T07:02:43.493Z,30
2017-07-18T07:03:23.999Z,30
2017-07-18T07:04:04.489Z,30
2017-07-18T07:04:44.998Z,30
2017-07-18T07:05:25.495Z,30
2017-07-18T07:06:06.036Z,30
2017-07-18T07:06:46.599Z,30
2017-07-18T07:07:27.069Z,30
2017-07-18T07:08:07.547Z,30
2017-07-18T07:08:48.102Z,30
2017-07-18T07:09:28.555Z,30
2017-07-18T07:10:08.991Z,30
2017-07-18T07:10:49.543Z,30
2017-07-18T07:11:30.157Z,35
2017-07-18T07:12:10.656Z,40
2017-07-18T07:12:51.404Z,30
2017-07-18T07:13:32.005Z,35
2017-07-18T07:14:12.616Z,30
2017-07-18T07:14:53.110Z,30
2017-07-18T07:15:33.618Z,30
2017-07-18T07:16:14.159Z,30
2017-07-18T07:16:54.632Z,30
2017-07-18T07:17:35.125Z,30
2017-07-18T07:18:15.921Z,30
2017-07-18T07:18:56.403Z,30
2017-07-18T07:19:36.826Z,30
2017-07-18T07:20:17.367Z,35
2017-07-18T07:20:57.913Z,30
2017-07-18T07:21:38.402Z,35
2017-07-18T07:22:18.989Z,30
2017-07-18T07:22:59.515Z,30
2017-07-18T07:23:40.040Z,30
2017-07-18T07:24:20.474Z,30
2017-07-18T07:25:01.033Z,30
2017-07-18T07:25:41.537Z,30
2017-07-18T07:26:22.037Z,30
2017-07-18T07:27:02.548Z,30
2017-07-18T07:27:42.991Z,30
2017-07-18T07:28:23.506Z,30
2017-07-18T07:29:03.986Z,30
2017-07-18T07:29:44.507Z,30
2017-07-18T07:30:25.030Z,30
2017-07-18T07:31:05.548Z,30
2017-07-18T07:31:46.092Z,25
2017-07-18T07:32:26.624Z,30
2017-07-18T07:33:07.097Z,30
2017-07-18T07:33:47.593Z,25
2017-07-18T07:34:28.062Z,25
2017-07-18T07:35:08.585Z,25
2017-07-18T07:35:49.091Z,25
2017-07-18T07:36:29.622Z,25
2017-07-18T07:37:10.097Z,25
2017-07-18T07:37:50.640Z,25
2017-07-18T07:38:31.115Z,25
2017-07-18T07:39:11.590Z,25
2017-07-18T07:39:52.093Z,25
2017-07-18T07:40:32.617Z,25
2017-07-18T07:41:13.093Z,25
2017-07-18T07:41:53.621Z,25
2017-07-18T07:42:34.101Z,25
2017-07-18T07:43:14.591Z,25
2017-07-18T07:43:55.165Z,25
2017-07-18T07:44:35.741Z,25
2017-07-18T07:45:16.214Z,25
2017-07-18T07:45:56.775Z,25
2017-07-18T07:46:37.242Z,25
2017-07-18T07:47:17.787Z,25
2017-07-18T07:47:58.300Z,25
2017-07-18T07:48:38.739Z,25
2017-07-18T07:49:19.255Z,25
2017-07-18T07:49:59.761Z,25
2017-07-18T07:50:40.413Z,25
2017-07-18T07:51:20.863Z,25
2017-07-18T07:52:01.372Z,25
2017-07-18T07:52:41.898Z,25
2017-07-18T07:53:22.461Z,20
2017-07-18T07:54:02.901Z,25
2017-07-18T07:54:43.453Z,25
2017-07-18T07:55:24.012Z,25
2017-07-18T07:56:04.554Z,25
2017-07-18T07:56:45.144Z,25
2017-07-18T07:57:25.803Z,20
2017-07-18T07:58:06.225Z,25
2017-07-18T07:58:46.712Z,25
2017-07-18T07:59:27.229Z,25
2017-07-18T08:00:07.832Z,25
2017-07-18T08:00:48.375Z,20
2017-07-18T08:01:28.940Z,20
2017-07-18T08:02:09.459Z,20
2017-07-18T08:02:49.925Z,20
2017-07-18T08:03:30.428Z,20
2017-07-18T08:04:10.951Z,20
2017-07-18T08:04:51.454Z,20
2017-07-18T08:05:31.976Z,20
2017-07-18T08:06:12.761Z,20
2017-07-18T08:06:53.372Z,20
2017-07-18T08:07:33.833Z,20
2017-07-18T08:08:14.430Z,20
2017-07-18T08:08:54.929Z,20
2017-07-18T08:09:35.446Z,20
2017-07-18T08:10:15.930Z,20
2017-07-18T08:10:56.422Z,20
2017-07-18T08:11:36.907Z,20
2017-07-18T08:12:17.482Z,20
2017-07-18T08:12:58.019Z,20
2017-07-18T08:13:38.724Z,20
2017-07-18T08:14:19.217Z,20
2017-07-18T08:14:59.737Z,20
2017-07-18T08:15:40.273Z,20
2017-07-18T08:16:20.760Z,20
2017-07-18T08:17:01.235Z,20
2017-07-18T08:17:41.782Z,20
2017-07-18T08:18:22.318Z,20
2017-07-18T08:19:02.834Z,20
2017-07-18T08:19:43.340Z,20
2017-07-18T08:20:23.829Z,20
2017-07-18T08:21:04.332Z,20
2017-07-18T08:21:44.819Z,20
2017-07-18T08:22:25.351Z,20
2017-07-18T08:23:05.832Z,20
2017-07-18T08:23:46.329Z,20
2017-07-18T08:24:26.814Z,20
2017-07-18T08:25:07.377Z,20
2017-07-18T08:25:47.832Z,20
2017-07-18T08:26:28.389Z,20
2017-07-18T08:27:08.922Z,20
2017-07-18T08:27:49.402Z,20
2017-07-18T08:28:29.860Z,20
2017-07-18T08:29:10.593Z,20
2017-07-18T08:29:51.111Z,20
2017-07-18T08:30:31.597Z,20
2017-07-18T08:31:12.153Z,20
2017-07-18T08:31:52.615Z,20
2017-07-18T08:32:33.142Z,15
2017-07-18T08:33:13.625Z,15
2017-07-18T08:33:54.131Z,15
2017-07-18T08:34:34.616Z,15
2017-07-18T08:35:15.158Z,15
2017-07-18T08:35:55.632Z,15
2017-07-18T08:36:36.174Z,15
2017-07-18T08:37:16.618Z,15
2017-07-18T08:37:57.249Z,15
2017-07-18T08:38:37.706Z,15
2017-07-18T08:39:18.206Z,15
2017-07-18T08:39:58.818Z,15
2017-07-18T08:40:39.236Z,15
2017-07-18T08:41:19.728Z,15
2017-07-18T08:42:00.220Z,15
2017-07-18T08:42:40.708Z,15
2017-07-18T08:43:21.196Z,15
2017-07-18T08:44:01.688Z,15
2017-07-18T08:44:42.222Z,15
2017-07-18T08:45:22.675Z,15
2017-07-18T08:46:03.173Z,15
2017-07-18T08:46:43.712Z,15
2017-07-18T08:47:24.165Z,15
2017-07-18T08:48:04.680Z,15
2017-07-18T08:48:45.197Z,15
2017-07-18T08:49:25.704Z,15
2017-07-18T08:50:06.167Z,15
2017-07-18T08:50:46.677Z,15
2017-07-18T08:51:27.147Z,15
2017-07-18T08:52:07.649Z,15
2017-07-18T08:52:48.125Z,15
2017-07-18T08:53:28.617Z,15
2017-07-18T08:54:09.120Z,15
2017-07-18T08:54:49.681Z,15
2017-07-18T08:55:30.159Z,15
2017-07-18T08:56:10.666Z,15
2017-07-18T08:56:51.125Z,15
2017-07-18T08:57:31.656Z,15
2017-07-18T08:58:12.136Z,15
2017-07-18T08:58:52.668Z,15
2017-07-18T08:59:33.160Z,15
2017-07-18T09:00:13.788Z,15
2017-07-18T09:00:54.176Z,15
2017-07-18T09:01:34.791Z,15
2017-07-18T09:02:15.210Z,15
2017-07-18T09:02:55.637Z,15
2017-07-18T09:03:36.226Z,15
2017-07-18T09:04:16.596Z,15
2017-07-18T09:04:57.134Z,15
2017-07-18T09:05:37.634Z,15
2017-07-18T09:06:18.123Z,15
2017-07-18T09:06:58.831Z,15
2017-07-18T09:07:39.318Z,15
2017-07-18T09:08:19.781Z,15
2017-07-18T09:09:00.359Z,15
2017-07-18T09:09:40.853Z,15
2017-07-18T09:10:21.387Z,15
2017-07-18T09:11:01.844Z,15
2017-07-18T09:11:42.331Z,15
2017-07-18T09:12:22.803Z,15
2017-07-18T09:13:03.329Z,15
2017-07-18T09:13:43.864Z,15
2017-07-18T09:14:24.384Z,15
2017-07-18T09:15:04.877Z,15
2017-07-18T09:15:45.362Z,15
2017-07-18T09:16:25.855Z,15
2017-07-18T09:17:06.358Z,15
2017-07-18T09:17:46.869Z,15
2017-07-18T09:18:27.387Z,15
2017-07-18T09:19:07.869Z,15
2017-07-18T09:19:48.345Z,15
2017-07-18T09:20:28.880Z,15
2017-07-18T09:21:09.339Z,15
2017-07-18T09:21:49.846Z,15
2017-07-18T09:22:30.406Z,15
2017-07-18T09:23:10.967Z,15
2017-07-18T09:23:51.419Z,15
2017-07-18T09:24:31.983Z,15
2017-07-18T09:25:12.508Z,15
2017-07-18T09:25:52.958Z,15
2017-07-18T09:26:33.511Z,15
2017-07-18T09:27:13.991Z,15
2017-07-18T09:27:54.597Z,15
2017-07-18T09:28:35.096Z,15
2017-07-18T09:29:15.552Z,15
2017-07-18T09:29:56.078Z,15
2017-07-18T09:30:36.616Z,15
2017-07-18T09:31:17.099Z,15
2017-07-18T09:31:57.620Z,15
2017-07-18T09:32:38.169Z,15
2017-07-18T09:33:18.872Z,15
2017-07-18T09:33:59.302Z,15
2017-07-18T09:34:39.750Z,15
2017-07-18T09:35:20.344Z,15
2017-07-18T09:36:00.824Z,15
2017-07-18T09:36:41.329Z,15
2017-07-18T09:37:21.797Z,15
2017-07-18T09:38:02.319Z,15
2017-07-18T09:38:42.831Z,15
2017-07-18T09:39:23.307Z,15
2017-07-18T09:40:03.753Z,15
2017-07-18T09:40:44.262Z,15
2017-07-18T09:41:24.774Z,15
2017-07-18T09:42:05.286Z,15
2017-07-18T09:42:45.773Z,15
2017-07-18T09:43:26.276Z,15
2017-07-18T09:44:06.794Z,15
2017-07-18T09:44:47.294Z,15
2017-07-18T09:47:01.428Z,15
2017-07-18T09:47:41.969Z,15
2017-07-18T09:48:22.473Z,15
2017-07-18T09:49:02.999Z,15
2017-07-18T09:49:43.503Z,15
2017-07-18T09:50:23.974Z,15
2017-07-18T09:51:04.519Z,15
2017-07-18T09:51:44.975Z,15
2017-07-18T09:52:25.442Z,15
2017-07-18T09:53:05.993Z,15
2017-07-18T09:53:46.467Z,15